Time;durP1;ratioP1;P1;durP2;ratioP2;P2;SDS_P1;SDS_P2;PMS_P1;PMS_P2;Temp;Humidity;BMP_temperature;BMP_pressure;BME280_temperature;BME280_humidity;BME280_pressure;Samples;Min_cycle;Max_cycle;Signal;HPM_P1;HPM_P2
2021/09/24 00:01:20;;;;;;;0.27;0.20;;;21.90;67.80;;;;;;5118078;28;20027;-36
2021/09/24 00:03:46;;;;;;;0.30;0.30;;;21.90;67.80;;;;;;5106777;28;20028;-36
2021/09/24 00:06:12;;;;;;;0.57;0.20;;;21.90;67.80;;;;;;5107919;28;20015;-36
2021/09/24 00:08:38;;;;;;;0.85;0.30;;;21.90;67.80;;;;;;5123586;28;20030;-36
2021/09/24 00:11:04;;;;;;;0.30;0.20;;;21.90;67.80;;;;;;5122985;28;20559;-36
2021/09/24 00:13:31;;;;;;;0.50;0.50;;;21.90;67.80;;;;;;5123208;28;20031;-36
2021/09/24 00:15:57;;;;;;;0.30;0.30;;;21.90;67.70;;;;;;5123180;28;20511;-36
2021/09/24 00:18:23;;;;;;;0.20;0.20;;;21.90;67.80;;;;;;5123183;28;20043;-36
2021/09/24 00:20:49;;;;;;;0.20;0.20;;;21.90;67.80;;;;;;5122922;28;20036;-36
2021/09/24 00:23:15;;;;;;;0.30;0.30;;;21.80;67.70;;;;;;5123300;28;20027;-37
2021/09/24 00:25:41;;;;;;;0.20;0.20;;;21.80;67.80;;;;;;5123035;28;20024;-36
2021/09/24 00:28:08;;;;;;;0.38;0.20;;;21.80;67.70;;;;;;5123242;28;20051;-36
2021/09/24 00:30:35;;;;;;;0.40;0.20;;;21.80;67.70;;;;;;5123081;28;20814;-36
2021/09/24 00:33:01;;;;;;;0.30;0.20;;;21.80;67.70;;;;;;5107889;28;20110;-36
2021/09/24 00:35:27;;;;;;;0.20;0.20;;;21.80;67.70;;;;;;5102531;28;20051;-36
2021/09/24 00:37:53;;;;;;;0.38;0.25;;;21.80;67.70;;;;;;5107326;28;20032;-36
2021/09/24 00:40:19;;;;;;;0.20;0.20;;;21.80;67.70;;;;;;5102603;28;20055;-36
2021/09/24 00:42:45;;;;;;;0.20;0.20;;;21.70;67.60;;;;;;5102696;28;20058;-36
2021/09/24 00:45:12;;;;;;;0.25;0.20;;;21.70;67.70;;;;;;5102566;28;20052;-36
2021/09/24 00:47:38;;;;;;;0.30;0.30;;;21.70;67.70;;;;;;5102350;28;20087;-36
2021/09/24 00:50:06;;;;;;;0.40;0.30;;;21.70;67.70;;;;;;5102115;28;20032;-36
2021/09/24 00:52:32;;;;;;;1.60;0.30;;;21.70;67.80;;;;;;5102207;28;20040;-36
2021/09/24 00:54:58;;;;;;;0.52;0.30;;;21.70;67.80;;;;;;5084282;28;20024;-36
2021/09/24 00:57:24;;;;;;;0.35;0.35;;;21.70;67.80;;;;;;5102444;28;20020;-36
2021/09/24 00:59:51;;;;;;;0.30;0.20;;;21.70;67.80;;;;;;5102225;28;20039;-37
2021/09/24 01:02:17;;;;;;;0.20;0.20;;;21.70;67.90;;;;;;5104713;28;20028;-36
2021/09/24 01:04:44;;;;;;;0.30;0.20;;;21.60;67.90;;;;;;5087697;28;20787;-37
2021/09/24 01:07:11;;;;;;;0.20;0.20;;;21.60;67.90;;;;;;5118972;28;20020;-36
2021/09/24 01:09:38;;;;;;;0.65;0.30;;;21.60;67.90;;;;;;5108190;28;20301;-36
2021/09/24 01:12:04;;;;;;;0.55;0.30;;;21.60;68.00;;;;;;5119561;28;20023;-36
2021/09/24 01:14:31;;;;;;;0.22;0.20;;;21.60;68.00;;;;;;5089158;28;20032;-36
2021/09/24 01:16:58;;;;;;;0.13;0.13;;;21.60;68.00;;;;;;5126497;28;20619;-37
2021/09/24 01:19:24;;;;;;;0.30;0.28;;;21.60;68.00;;;;;;5126245;28;20048;-36
2021/09/24 01:21:50;;;;;;;0.50;0.30;;;21.50;68.00;;;;;;5126058;28;20047;-36
2021/09/24 01:24:17;;;;;;;0.57;0.23;;;21.50;68.00;;;;;;5125567;28;20145;-37
2021/09/24 01:26:51;;;;;;;0.22;0.22;;;21.50;68.10;;;;;;5126312;28;20035;-36
2021/09/24 01:29:17;;;;;;;0.50;0.40;;;21.50;68.10;;;;;;5108037;28;20066;-36
2021/09/24 01:31:43;;;;;;;0.63;0.40;;;21.50;68.20;;;;;;5107703;28;20801;-36
2021/09/24 01:34:10;;;;;;;0.60;0.30;;;21.50;68.20;;;;;;5107768;28;20034;-36
2021/09/24 01:36:36;;;;;;;0.63;0.30;;;21.40;68.20;;;;;;5107856;28;20031;-36
2021/09/24 01:39:07;;;;;;;0.63;0.35;;;21.40;68.20;;;;;;5126036;28;20032;-36
2021/09/24 01:41:33;;;;;;;0.30;0.30;;;21.40;68.30;;;;;;5125911;28;20068;-37
2021/09/24 01:43:59;;;;;;;0.23;0.20;;;21.40;68.30;;;;;;5126116;28;20039;-36
2021/09/24 01:46:25;;;;;;;0.45;0.30;;;21.40;68.30;;;;;;5121216;28;20038;-36
2021/09/24 01:48:51;;;;;;;0.38;0.30;;;21.40;68.30;;;;;;5125729;28;20035;-36
2021/09/24 01:51:18;;;;;;;0.30;0.20;;;21.40;68.30;;;;;;5125466;28;20050;-37
2021/09/24 01:53:44;;;;;;;0.20;0.20;;;21.30;68.30;;;;;;5125529;28;20024;-36
2021/09/24 01:56:10;;;;;;;0.85;0.30;;;21.30;68.30;;;;;;5125731;28;20035;-36
2021/09/24 01:58:36;;;;;;;0.40;0.30;;;21.30;68.40;;;;;;5125614;28;20035;-36
2021/09/24 02:01:02;;;;;;;0.30;0.20;;;21.30;68.40;;;;;;5125327;28;20016;-36
2021/09/24 02:03:28;;;;;;;0.43;0.30;;;21.30;68.40;;;;;;5107080;28;20869;-36
2021/09/24 02:05:55;;;;;;;0.30;0.30;;;21.20;68.40;;;;;;5121950;28;20023;-37
2021/09/24 02:08:21;;;;;;;0.30;0.20;;;21.20;68.40;;;;;;5125467;28;20019;-36
2021/09/24 02:10:47;;;;;;;0.45;0.30;;;21.20;68.50;;;;;;5124989;28;20028;-37
2021/09/24 02:13:13;;;;;;;0.28;0.28;;;21.20;68.50;;;;;;5124415;28;20128;-36
2021/09/24 02:15:39;;;;;;;0.60;0.35;;;21.20;68.50;;;;;;5125079;28;20053;-36
2021/09/24 02:18:05;;;;;;;0.40;0.40;;;21.20;68.60;;;;;;5125142;28;20523;-37
2021/09/24 02:20:31;;;;;;;0.60;0.30;;;21.10;68.60;;;;;;5125224;28;20032;-36
2021/09/24 02:22:58;;;;;;;0.50;0.40;;;21.10;68.70;;;;;;5106623;28;20564;-36
2021/09/24 02:25:24;;;;;;;0.30;0.30;;;21.10;68.70;;;;;;5124932;28;20030;-36
2021/09/24 02:27:50;;;;;;;0.40;0.40;;;21.10;68.70;;;;;;5125127;28;20762;-36
2021/09/24 02:30:16;;;;;;;0.70;0.45;;;21.10;68.70;;;;;;5124946;28;20049;-37
2021/09/24 02:32:42;;;;;;;0.52;0.40;;;21.10;68.80;;;;;;5124668;28;20024;-36
2021/09/24 02:35:09;;;;;;;1.17;0.45;;;21.10;68.80;;;;;;5124803;28;20031;-36
2021/09/24 02:37:35;;;;;;;0.20;0.20;;;21.00;68.80;;;;;;5118969;28;20087;-36
2021/09/24 02:40:01;;;;;;;0.35;0.35;;;21.00;68.80;;;;;;5124646;28;20054;-36
2021/09/24 02:42:27;;;;;;;0.52;0.40;;;21.00;68.90;;;;;;5124640;28;20031;-36
2021/09/24 02:44:54;;;;;;;0.50;0.30;;;21.00;68.90;;;;;;5124581;28;20174;-39
2021/09/24 02:47:20;;;;;;;0.47;0.40;;;21.00;69.00;;;;;;5124749;28;20032;-36
2021/09/24 02:49:48;;;;;;;0.80;0.60;;;21.00;69.10;;;;;;5124512;28;20061;-36
2021/09/24 02:52:14;;;;;;;0.40;0.30;;;21.00;69.10;;;;;;5110648;28;20051;-37
2021/09/24 02:54:40;;;;;;;0.40;0.40;;;21.00;69.10;;;;;;5104034;28;20027;-37
2021/09/24 02:57:06;;;;;;;0.35;0.25;;;20.90;69.10;;;;;;5103808;28;20035;-37
2021/09/24 02:59:32;;;;;;;0.85;0.40;;;20.90;69.10;;;;;;5103872;28;20484;-37
2021/09/24 03:01:58;;;;;;;0.80;0.30;;;20.90;69.20;;;;;;5103649;28;20036;-37
2021/09/24 03:04:25;;;;;;;0.32;0.30;;;20.90;69.20;;;;;;5103739;28;20028;-36
2021/09/24 03:06:51;;;;;;;0.45;0.40;;;20.90;69.20;;;;;;5103568;28;20080;-37
2021/09/24 03:09:18;;;;;;;0.50;0.40;;;20.80;69.20;;;;;;5103641;28;20031;-37
2021/09/24 03:11:44;;;;;;;0.50;0.40;;;20.80;69.30;;;;;;5103438;28;20035;-36
2021/09/24 03:14:10;;;;;;;0.43;0.40;;;20.80;69.40;;;;;;5103715;28;20105;-36
2021/09/24 03:16:37;;;;;;;0.60;0.50;;;20.80;69.30;;;;;;5103701;28;20020;-36
2021/09/24 03:19:05;;;;;;;0.50;0.50;;;20.80;69.40;;;;;;5103339;28;20036;-37
2021/09/24 03:21:31;;;;;;;0.60;0.45;;;20.80;69.50;;;;;;5103516;28;20066;-36
2021/09/24 03:23:57;;;;;;;0.68;0.40;;;20.80;69.50;;;;;;5103259;28;20024;-37
2021/09/24 03:26:23;;;;;;;0.30;0.30;;;20.80;69.60;;;;;;5103441;28;20028;-37
2021/09/24 03:28:49;;;;;;;0.63;0.40;;;20.70;69.50;;;;;;5103087;28;20246;-37
2021/09/24 03:31:16;;;;;;;1.13;0.68;;;20.70;69.60;;;;;;5103353;28;20024;-37
2021/09/24 03:33:42;;;;;;;0.55;0.40;;;20.70;69.60;;;;;;5103191;28;20031;-37
2021/09/24 03:36:08;;;;;;;0.40;0.40;;;20.70;69.70;;;;;;5103363;28;20035;-37
2021/09/24 03:38:34;;;;;;;0.47;0.40;;;20.70;69.70;;;;;;5102995;28;20503;-37
2021/09/24 03:41:01;;;;;;;0.50;0.40;;;20.70;69.70;;;;;;5102960;28;20028;-37
2021/09/24 03:43:27;;;;;;;0.82;0.50;;;20.60;69.70;;;;;;5084619;28;20020;-37
2021/09/24 03:45:53;;;;;;;0.80;0.40;;;20.60;69.70;;;;;;5103069;28;20487;-37
2021/09/24 03:48:19;;;;;;;0.60;0.40;;;20.60;69.80;;;;;;5102930;28;20036;-37
2021/09/24 03:50:45;;;;;;;0.80;0.60;;;20.60;69.90;;;;;;5103903;28;20028;-37
2021/09/24 03:53:11;;;;;;;0.57;0.40;;;20.60;69.90;;;;;;5119771;28;20028;-37
2021/09/24 03:55:38;;;;;;;0.50;0.50;;;20.60;69.80;;;;;;5123348;28;20031;-37
2021/09/24 03:58:04;;;;;;;0.38;0.35;;;20.60;69.90;;;;;;5123498;28;20112;-37
2021/09/24 04:00:30;;;;;;;0.50;0.40;;;20.60;69.90;;;;;;5123319;28;20773;-37
2021/09/24 04:02:56;;;;;;;0.50;0.50;;;20.50;69.90;;;;;;5122976;28;20058;-37
2021/09/24 04:05:22;;;;;;;0.68;0.50;;;20.50;70.00;;;;;;5123374;28;20032;-37
2021/09/24 04:07:48;;;;;;;0.50;0.40;;;20.50;70.00;;;;;;5123128;28;20046;-37
2021/09/24 04:10:14;;;;;;;0.80;0.40;;;20.50;70.00;;;;;;5123116;28;20024;-37
2021/09/24 04:12:41;;;;;;;0.50;0.32;;;20.50;70.10;;;;;;5122947;28;20023;-37
2021/09/24 04:15:07;;;;;;;1.02;0.50;;;20.50;70.10;;;;;;5107631;28;20131;-37
2021/09/24 04:17:33;;;;;;;0.32;0.30;;;20.40;70.10;;;;;;5102761;28;20052;-37
2021/09/24 04:19:59;;;;;;;0.80;0.40;;;20.40;70.10;;;;;;5102670;28;20063;-37
2021/09/24 04:22:26;;;;;;;0.45;0.40;;;20.40;70.20;;;;;;5102341;28;20036;-37
2021/09/24 04:24:52;;;;;;;0.73;0.50;;;20.40;70.20;;;;;;5084546;28;20107;-37
2021/09/24 04:27:18;;;;;;;0.40;0.30;;;20.40;70.30;;;;;;5102628;28;20099;-37
2021/09/24 04:29:44;;;;;;;0.50;0.50;;;20.40;70.30;;;;;;5102576;28;20024;-37
2021/09/24 04:32:10;;;;;;;0.38;0.38;;;20.40;70.30;;;;;;5102646;28;20024;-37
2021/09/24 04:34:36;;;;;;;1.90;0.47;;;20.30;70.30;;;;;;5102299;28;20032;-37
2021/09/24 04:37:03;;;;;;;1.75;0.50;;;20.30;70.30;;;;;;5116313;28;20028;-38
2021/09/24 04:39:29;;;;;;;0.55;0.43;;;20.30;70.40;;;;;;5126853;28;20152;-37
2021/09/24 04:41:55;;;;;;;0.73;0.50;;;20.30;70.40;;;;;;5126976;28;20027;-37
2021/09/24 04:44:21;;;;;;;0.70;0.50;;;20.30;70.50;;;;;;5126746;28;20073;-37
2021/09/24 04:46:48;;;;;;;0.50;0.47;;;20.20;70.40;;;;;;5126859;28;20020;-36
2021/09/24 04:49:14;;;;;;;0.60;0.40;;;20.30;70.60;;;;;;5126808;28;20031;-37
2021/09/24 04:51:41;;;;;;;0.80;0.60;;;20.20;70.50;;;;;;5126555;28;20284;-37
2021/09/24 04:54:07;;;;;;;0.60;0.47;;;20.20;70.60;;;;;;5126665;28;20049;-37
2021/09/24 04:56:33;;;;;;;0.60;0.50;;;20.20;70.60;;;;;;5126630;28;20027;-37
2021/09/24 04:58:59;;;;;;;0.40;0.30;;;20.20;70.60;;;;;;5126553;28;20089;-37
2021/09/24 05:01:25;;;;;;;0.77;0.50;;;20.20;70.60;;;;;;5126686;28;20019;-37
2021/09/24 05:03:51;;;;;;;0.60;0.50;;;20.20;70.70;;;;;;5126264;28;20033;-37
2021/09/24 05:06:18;;;;;;;0.68;0.60;;;20.20;70.80;;;;;;5126331;28;20489;-37
2021/09/24 05:08:44;;;;;;;1.08;0.47;;;20.10;70.70;;;;;;5126242;28;20035;-37
2021/09/24 05:11:10;;;;;;;0.60;0.50;;;20.10;70.70;;;;;;5126479;28;20027;-41
2021/09/24 05:13:36;;;;;;;0.77;0.63;;;20.10;70.70;;;;;;5126148;28;20023;-36
2021/09/24 05:16:05;;;;;;;1.73;0.50;;;20.10;70.80;;;;;;5126324;28;20027;-37
2021/09/24 05:18:31;;;;;;;0.82;0.68;;;20.10;70.80;;;;;;5126063;28;20035;-37
2021/09/24 05:20:57;;;;;;;0.55;0.55;;;20.10;70.90;;;;;;5126161;28;20397;-37
2021/09/24 05:23:23;;;;;;;1.33;0.43;;;20.00;70.90;;;;;;5125978;28;20046;-37
2021/09/24 05:25:49;;;;;;;0.80;0.60;;;20.10;71.00;;;;;;5126111;28;20032;-37
2021/09/24 05:28:15;;;;;;;0.70;0.60;;;20.00;70.90;;;;;;5126119;28;20019;-37
2021/09/24 05:30:42;;;;;;;0.70;0.47;;;20.00;71.00;;;;;;5126066;28;20028;-38
2021/09/24 05:33:08;;;;;;;0.85;0.60;;;20.00;71.00;;;;;;5125816;28;20031;-37
2021/09/24 05:35:34;;;;;;;0.65;0.65;;;20.00;71.00;;;;;;5125432;28;20073;-37
2021/09/24 05:38:00;;;;;;;0.90;0.60;;;20.00;71.10;;;;;;5125418;28;20051;-38
2021/09/24 05:40:27;;;;;;;0.73;0.60;;;20.00;71.10;;;;;;5125056;28;20073;-37
2021/09/24 05:42:53;;;;;;;1.60;0.43;;;19.90;71.10;;;;;;5125763;28;20027;-37
2021/09/24 05:45:20;;;;;;;0.70;0.50;;;19.90;71.10;;;;;;5125451;28;20032;-37
2021/09/24 05:47:46;;;;;;;0.60;0.52;;;19.90;71.10;;;;;;5106228;28;20076;-37
2021/09/24 05:50:13;;;;;;;0.75;0.60;;;19.90;71.30;;;;;;5125587;28;20031;-37
2021/09/24 05:52:43;;;;;;;0.70;0.50;;;19.90;71.20;;;;;;5125631;28;20100;-37
2021/09/24 05:55:10;;;;;;;0.60;0.60;;;19.90;71.30;;;;;;5125275;28;20271;-37
2021/09/24 05:57:36;;;;;;;1.10;0.50;;;19.90;71.40;;;;;;5106427;28;20055;-36
2021/09/24 06:00:05;;;;;;;0.93;0.55;;;19.90;71.40;;;;;;5113634;28;20069;-36
2021/09/24 06:02:31;;;;;;;0.68;0.68;;;19.80;71.30;;;;;;5124147;28;20027;-37
2021/09/24 06:04:58;;;;;;;1.38;0.77;;;19.80;71.40;;;;;;5125184;28;20027;-37
2021/09/24 06:07:25;;;;;;;0.88;0.60;;;19.80;71.40;;;;;;5124964;28;20472;-36
2021/09/24 06:09:51;;;;;;;0.75;0.65;;;19.80;71.40;;;;;;5125481;28;20081;-36
2021/09/24 06:12:17;;;;;;;0.50;0.50;;;19.80;71.40;;;;;;5123830;28;20104;-36
2021/09/24 06:14:44;;;;;;;0.93;0.63;;;19.80;71.40;;;;;;5104628;28;20027;-37
2021/09/24 06:17:11;;;;;;;0.60;0.50;;;19.70;71.40;;;;;;5104756;28;20043;-36
2021/09/24 06:19:38;;;;;;;;;;;19.70;71.40;;;;;;5104862;28;20044;-36
2021/09/24 06:22:09;;;;;;;0.77;0.50;;;19.70;71.50;;;;;;5104734;28;19931;-35
2021/09/24 06:24:36;;;;;;;0.57;0.50;;;19.70;71.50;;;;;;5104206;28;20020;-36
2021/09/24 06:27:14;;;;;;;0.63;0.60;;;19.70;71.60;;;;;;5104567;28;20032;-36
2021/09/24 06:29:41;;;;;;;;;;;19.70;71.60;;;;;;5104952;28;20080;-36
2021/09/24 06:32:07;;;;;;;0.43;0.40;;;19.70;71.70;;;;;;5104355;28;19908;-36
2021/09/24 06:34:35;;;;;;;1.17;0.50;;;19.70;71.70;;;;;;5103950;28;20024;-36
2021/09/24 06:37:02;;;;;;;1.02;0.47;;;19.60;71.70;;;;;;5115932;28;20028;-36
2021/09/24 06:39:28;;;;;;;0.70;0.60;;;19.60;71.70;;;;;;5124637;28;20049;-37
2021/09/24 06:41:54;;;;;;;1.00;0.50;;;19.60;71.80;;;;;;5124943;28;20027;-36
2021/09/24 06:44:20;;;;;;;1.38;0.60;;;19.60;71.80;;;;;;5124233;28;20035;-36
2021/09/24 06:46:46;;;;;;;0.75;0.52;;;19.60;71.80;;;;;;5124564;28;20028;-36
2021/09/24 06:49:13;;;;;;;0.70;0.50;;;19.60;71.80;;;;;;5124511;28;20032;-36
2021/09/24 06:51:39;;;;;;;0.80;0.60;;;19.60;71.90;;;;;;5124440;28;20059;-36
2021/09/24 06:54:05;;;;;;;0.87;0.60;;;19.60;71.90;;;;;;5124555;28;20571;-36
2021/09/24 06:56:32;;;;;;;0.80;0.55;;;19.50;71.90;;;;;;5124258;28;20031;-36
2021/09/24 06:59:00;;;;;;;0.50;0.50;;;19.50;71.90;;;;;;5123831;28;20085;-37
2021/09/24 07:01:27;;;;;;;0.70;0.60;;;19.50;72.00;;;;;;5124256;28;20448;-37
2021/09/24 07:03:54;;;;;;;1.08;0.47;;;19.50;72.00;;;;;;5124097;28;20019;-37
2021/09/24 07:06:20;;;;;;;0.80;0.70;;;19.50;72.00;;;;;;5124062;28;20035;-37
2021/09/24 07:08:46;;;;;;;0.88;0.60;;;19.50;72.00;;;;;;5124296;28;20126;-37
2021/09/24 07:11:12;;;;;;;0.90;0.70;;;19.50;72.10;;;;;;5124240;28;20073;-37
2021/09/24 07:13:38;;;;;;;0.50;0.40;;;19.40;72.00;;;;;;5124069;28;20030;-37
2021/09/24 07:16:05;;;;;;;0.75;0.65;;;19.40;72.10;;;;;;5123679;28;20024;-37
2021/09/24 07:18:31;;;;;;;0.75;0.50;;;19.40;72.10;;;;;;5105487;28;20044;-37
2021/09/24 07:20:57;;;;;;;0.80;0.50;;;19.40;72.10;;;;;;5123944;28;20139;-37
2021/09/24 07:23:23;;;;;;;0.63;0.52;;;19.40;72.20;;;;;;5123781;28;20059;-37
2021/09/24 07:25:50;;;;;;;0.80;0.60;;;19.40;72.10;;;;;;5122716;28;20066;-37
2021/09/24 07:28:16;;;;;;;0.80;0.60;;;19.40;72.20;;;;;;5123774;28;20049;-37
2021/09/24 07:30:43;;;;;;;1.27;0.50;;;19.30;72.20;;;;;;5123301;28;20053;-37
2021/09/24 07:33:09;;;;;;;0.93;0.40;;;19.30;72.20;;;;;;5123470;28;20038;-37
2021/09/24 07:35:35;;;;;;;0.57;0.52;;;19.30;72.20;;;;;;5123485;28;20035;-37
2021/09/24 07:38:02;;;;;;;0.90;0.55;;;19.30;72.20;;;;;;5123533;28;20032;-37
2021/09/24 07:40:28;;;;;;;0.97;0.60;;;19.30;72.30;;;;;;5123717;28;20103;-37
2021/09/24 07:42:55;;;;;;;1.27;0.68;;;19.30;72.30;;;;;;5123468;28;20023;-37
2021/09/24 07:45:21;;;;;;;0.80;0.65;;;19.30;72.40;;;;;;5123249;28;20102;-37
2021/09/24 07:47:48;;;;;;;0.68;0.50;;;19.30;72.30;;;;;;5123643;28;20028;-37
2021/09/24 07:50:14;;;;;;;0.98;0.68;;;19.30;72.40;;;;;;5123458;28;20028;-37
2021/09/24 07:52:41;;;;;;;1.02;0.60;;;19.20;72.40;;;;;;5104863;28;20070;-37
2021/09/24 07:55:07;;;;;;;1.10;0.60;;;19.20;72.40;;;;;;5123261;28;20036;-37
2021/09/24 07:57:33;;;;;;;0.70;0.50;;;19.20;72.50;;;;;;5104894;28;20027;-37
2021/09/24 08:00:00;;;;;;;0.82;0.70;;;19.20;72.50;;;;;;5105037;28;20044;-37
2021/09/24 08:02:26;;;;;;;0.63;0.52;;;19.20;72.50;;;;;;5123072;28;20031;-37
2021/09/24 08:04:52;;;;;;;0.90;0.70;;;19.20;72.60;;;;;;5123116;28;20050;-37
2021/09/24 08:07:18;;;;;;;3.40;0.68;;;19.10;72.60;;;;;;5122704;28;20024;-37
2021/09/24 08:09:44;;;;;;;0.57;0.57;;;19.10;72.60;;;;;;5104674;28;20027;-37
2021/09/24 08:12:10;;;;;;;0.70;0.50;;;19.20;72.70;;;;;;5122502;28;20091;-37
2021/09/24 08:14:37;;;;;;;1.60;0.60;;;19.10;73.30;;;;;;5123176;28;20043;-37
2021/09/24 08:17:03;;;;;;;1.75;0.50;;;19.10;72.60;;;;;;5123048;28;20055;-37
2021/09/24 08:19:29;;;;;;;1.10;0.60;;;19.10;72.60;;;;;;5122871;28;20064;-37
2021/09/24 08:21:56;;;;;;;1.03;0.60;;;19.10;72.60;;;;;;5121521;28;20020;-36
2021/09/24 08:24:22;;;;;;;0.60;0.57;;;19.10;72.70;;;;;;5103403;28;20028;-37
2021/09/24 08:26:48;;;;;;;1.17;0.70;;;19.10;72.70;;;;;;5102431;28;20027;-37
2021/09/24 08:29:14;;;;;;;0.82;0.75;;;19.10;72.80;;;;;;5102722;28;20062;-37
2021/09/24 08:31:40;;;;;;;0.82;0.50;;;19.00;72.80;;;;;;5101507;28;20042;-37
2021/09/24 08:34:06;;;;;;;0.80;0.50;;;19.00;72.70;;;;;;5102417;28;20513;-37
2021/09/24 08:36:33;;;;;;;0.90;0.60;;;19.00;72.80;;;;;;5109895;28;20065;-37
2021/09/24 08:39:00;;;;;;;1.40;0.60;;;19.00;72.80;;;;;;5122900;28;20040;-37
2021/09/24 08:41:29;;;;;;;1.00;0.60;;;19.00;72.80;;;;;;5122759;28;20028;-37
2021/09/24 08:43:56;;;;;;;1.17;0.80;;;19.00;72.90;;;;;;5122960;28;20539;-37
2021/09/24 08:46:22;;;;;;;2.63;0.60;;;19.00;72.90;;;;;;5122894;28;20063;-37
2021/09/24 08:48:49;;;;;;;0.90;0.50;;;19.00;72.90;;;;;;5122681;28;20074;-37
2021/09/24 08:51:15;;;;;;;0.73;0.55;;;18.90;72.80;;;;;;5117598;28;20063;-37
2021/09/24 08:53:41;;;;;;;0.88;0.73;;;18.90;72.90;;;;;;5102299;28;20047;-37
2021/09/24 08:56:10;;;;;;;0.50;0.50;;;18.90;72.90;;;;;;5083803;28;20377;-37
2021/09/24 08:58:36;;;;;;;1.83;0.50;;;18.90;73.00;;;;;;5084265;28;20277;-37
2021/09/24 09:01:03;;;;;;;0.65;0.60;;;18.90;73.00;;;;;;5102284;28;20032;-37
2021/09/24 09:03:57;;;;;;;0.60;0.60;;;18.90;73.10;;;;;;5102286;28;20120;-37
2021/09/24 09:06:23;;;;;;;0.70;0.50;;;18.90;73.10;;;;;;5099119;28;20502;-37
2021/09/24 09:08:49;;;;;;;0.70;0.60;;;18.80;73.00;;;;;;5102162;28;20055;-37
2021/09/24 09:11:20;;;;;;;1.20;0.63;;;18.80;73.00;;;;;;5102077;28;20028;-37
2021/09/24 09:13:47;;;;;;;0.55;0.50;;;18.80;73.10;;;;;;5084443;28;20024;-37
2021/09/24 09:16:14;;;;;;;;;;;18.80;73.10;;;;;;5102556;28;20055;-37
2021/09/24 09:18:42;;;;;;;0.50;0.50;;;18.80;73.10;;;;;;5101756;28;19923;-37
2021/09/24 09:21:10;;;;;;;0.60;0.43;;;18.80;73.20;;;;;;5102128;28;20062;-37
2021/09/24 09:23:38;;;;;;;0.63;0.55;;;18.80;73.20;;;;;;5104735;28;20031;-37
2021/09/24 09:26:06;;;;;;;0.82;0.50;;;18.80;73.20;;;;;;5105749;28;20024;-37
2021/09/24 09:28:35;;;;;;;0.80;0.50;;;18.70;73.20;;;;;;5105197;28;20028;-36
2021/09/24 09:31:01;;;;;;;0.73;0.52;;;18.70;73.20;;;;;;5105529;28;20024;-37
2021/09/24 09:33:28;;;;;;;0.77;0.55;;;18.70;73.20;;;;;;5105513;28;20036;-37
2021/09/24 09:35:59;;;;;;;0.50;0.50;;;18.70;73.30;;;;;;5105550;28;20488;-37
2021/09/24 09:38:27;;;;;;;1.00;0.50;;;18.70;73.20;;;;;;5105265;28;20052;-37
2021/09/24 09:40:58;;;;;;;1.00;0.70;;;18.70;73.30;;;;;;5105588;28;20036;-38
2021/09/24 09:43:32;;;;;;;0.80;0.60;;;18.70;73.30;;;;;;5105214;28;20024;-37
2021/09/24 09:46:03;;;;;;;0.52;0.50;;;18.70;73.30;;;;;;5105277;28;20035;-37
2021/09/24 09:48:30;;;;;;;0.82;0.50;;;18.70;73.30;;;;;;5105012;28;20024;-37
2021/09/24 09:50:56;;;;;;;1.00;0.60;;;18.60;73.30;;;;;;5107642;28;20024;-37
2021/09/24 09:53:22;;;;;;;0.93;0.57;;;18.60;73.40;;;;;;5125590;28;20036;-37
2021/09/24 09:55:54;;;;;;;1.57;0.70;;;18.60;73.40;;;;;;5125755;28;20027;-37
2021/09/24 09:58:22;;;;;;;0.55;0.50;;;18.60;73.40;;;;;;5125464;28;20023;-37
2021/09/24 10:00:57;;;;;;;1.00;0.57;;;18.60;73.40;;;;;;5125449;28;20027;-37
2021/09/24 10:03:48;;;;;;;0.50;0.50;;;18.60;73.40;;;;;;5125580;28;20613;-37
2021/09/24 10:06:24;;;;;;;0.70;0.55;;;18.60;73.50;;;;;;5125535;28;20039;-37
2021/09/24 10:08:54;;;;;;;0.77;0.60;;;18.60;73.50;;;;;;5121329;28;20024;-37
2021/09/24 10:11:27;;;;;;;1.05;0.60;;;18.60;73.60;;;;;;5107222;28;20035;-37
2021/09/24 10:13:59;;;;;;;0.80;0.60;;;18.50;73.60;;;;;;5107840;28;20024;-37
2021/09/24 10:16:33;;;;;;;0.60;0.50;;;18.50;73.50;;;;;;5125318;28;20106;-37
2021/09/24 10:18:59;;;;;;;0.75;0.70;;;18.50;73.60;;;;;;5125001;28;20024;-37
2021/09/24 10:21:25;;;;;;;1.20;0.65;;;18.50;73.60;;;;;;5125213;28;20048;-37
2021/09/24 10:23:52;;;;;;;1.10;0.57;;;18.50;73.60;;;;;;5124992;28;20024;-37
2021/09/24 10:26:30;;;;;;;1.23;0.52;;;18.50;73.60;;;;;;5106591;28;20027;-37
2021/09/24 10:28:58;;;;;;;1.83;0.68;;;18.50;73.70;;;;;;5089644;28;20103;-37
2021/09/24 10:31:26;;;;;;;1.35;0.60;;;18.50;73.70;;;;;;5121717;28;20045;-37
2021/09/24 10:34:00;;;;;;;0.55;0.50;;;18.50;73.70;;;;;;5106333;28;20099;-37
2021/09/24 10:36:46;;;;;;;1.00;0.70;;;18.40;73.70;;;;;;5124890;28;20071;-37
2021/09/24 10:39:31;;;;;;;0.60;0.50;;;18.40;73.80;;;;;;5124546;28;20099;-37
2021/09/24 10:42:20;;;;;;;1.13;0.60;;;18.40;73.70;;;;;;5125082;28;20028;-37
2021/09/24 10:44:59;;;;;;;1.00;0.60;;;18.40;73.80;;;;;;5124476;28;20035;-37
2021/09/24 10:47:56;;;;;;;1.02;0.60;;;18.40;73.80;;;;;;5124654;28;20019;-37
2021/09/24 10:50:34;;;;;;;1.85;0.60;;;18.40;73.80;;;;;;5124822;28;20106;-37
2021/09/24 10:55:40;;;;;;;0.70;0.60;;;18.30;73.90;;;;;;5124404;28;20054;-37
2021/09/24 10:58:06;;;;;;;1.00;0.80;;;18.30;73.80;;;;;;5105967;28;20340;-37
2021/09/24 11:00:33;;;;;;;0.80;0.70;;;18.30;73.90;;;;;;5124083;28;20035;-37
2021/09/24 11:03:14;;;;;;;1.25;0.50;;;18.30;73.80;;;;;;5105926;28;20031;-37
2021/09/24 11:06:16;;;;;;;2.08;0.50;;;18.30;73.90;;;;;;5124170;28;20040;-37
2021/09/24 11:08:43;;;;;;;1.38;0.57;;;18.30;74.00;;;;;;5020968;28;20053;-37
2021/09/24 11:11:28;;;;;;;1.23;0.65;;;18.30;73.90;;;;;;5021106;28;20046;-37
2021/09/24 11:13:56;;;;;;;1.55;0.95;;;18.30;74.00;;;;;;5025385;28;20049;-37
2021/09/24 11:16:43;;;;;;;1.50;0.50;;;18.30;74.10;;;;;;5040618;28;20049;-37
2021/09/24 11:19:27;;;;;;;0.93;0.50;;;18.20;74.00;;;;;;5040540;28;20042;-37
2021/09/24 11:21:59;;;;;;;1.15;0.63;;;18.20;74.00;;;;;;5040712;28;20037;-37
2021/09/24 11:24:30;;;;;;;0.50;0.40;;;18.20;74.00;;;;;;5032297;28;20082;-37
2021/09/24 11:26:58;;;;;;;1.67;0.50;;;18.20;74.00;;;;;;5020769;28;20025;-37
2021/09/24 11:29:27;;;;;;;0.57;0.52;;;18.20;74.10;;;;;;5020197;28;20068;-37
2021/09/24 11:31:54;;;;;;;0.57;0.50;;;18.20;74.10;;;;;;5020813;28;20025;-37
2021/09/24 11:34:39;;;;;;;0.77;0.60;;;18.20;74.10;;;;;;5020610;28;20037;-37
2021/09/24 11:37:09;;;;;;;0.70;0.50;;;18.20;74.30;;;;;;5031969;28;20038;-37
2021/09/24 11:39:37;;;;;;;0.70;0.60;;;18.20;74.20;;;;;;5040132;28;20120;-37
2021/09/24 11:42:04;;;;;;;0.88;0.60;;;18.10;74.20;;;;;;5050335;28;20028;-37
2021/09/24 11:44:30;;;;;;;0.57;0.50;;;18.10;74.20;;;;;;5102256;28;20042;-37
2021/09/24 11:46:56;;;;;;;0.57;0.50;;;18.10;74.20;;;;;;5122545;28;20028;-37
2021/09/24 11:49:22;;;;;;;0.55;0.55;;;18.10;74.20;;;;;;5104951;28;20423;-37
2021/09/24 11:51:58;;;;;;;1.65;0.50;;;18.10;74.20;;;;;;5123385;28;20404;-37
2021/09/24 11:54:25;;;;;;;0.70;0.50;;;18.10;74.20;;;;;;5123259;28;20032;-37
2021/09/24 11:56:51;;;;;;;1.17;0.60;;;18.10;74.20;;;;;;5123428;28;20704;-37
2021/09/24 11:59:17;;;;;;;2.00;0.60;;;18.10;74.20;;;;;;5122756;28;20039;-37
2021/09/24 12:01:45;;;;;;;1.25;0.50;;;18.00;74.20;;;;;;5123327;28;20105;-37
2021/09/24 12:04:13;;;;;;;0.80;0.60;;;18.00;74.20;;;;;;5123094;28;20039;-37
2021/09/24 12:06:40;;;;;;;0.75;0.70;;;18.00;74.30;;;;;;5114843;28;20024;-37
2021/09/24 12:09:14;;;;;;;0.90;0.60;;;18.00;74.40;;;;;;5101996;28;20020;-37
2021/09/24 12:11:48;;;;;;;1.30;0.60;;;18.00;74.40;;;;;;5102728;28;20043;-37
2021/09/24 12:14:15;;;;;;;0.50;0.45;;;18.00;74.40;;;;;;5109802;28;20035;-37
2021/09/24 12:16:42;;;;;;;0.60;0.60;;;18.00;74.40;;;;;;5123221;28;20095;-37
2021/09/24 12:19:13;;;;;;;0.65;0.50;;;17.90;74.40;;;;;;5122710;28;20287;-38
2021/09/24 12:21:40;;;;;;;0.88;0.50;;;17.90;74.50;;;;;;5123178;28;20024;-37
2021/09/24 12:24:32;;;;;;;0.95;0.70;;;17.90;74.40;;;;;;5121545;28;20532;-37
2021/09/24 12:27:31;;;;;;;0.70;0.70;;;17.90;74.50;;;;;;5109751;28;20043;-37
2021/09/24 12:30:17;;;;;;;1.95;0.40;;;17.90;74.40;;;;;;5111285;28;20751;-37
2021/09/24 12:32:43;;;;;;;0.77;0.60;;;17.90;74.40;;;;;;5102577;28;20064;-37
2021/09/24 12:35:12;;;;;;;1.00;0.65;;;17.90;74.40;;;;;;5102638;28;20031;-37
2021/09/24 12:37:44;;;;;;;0.50;0.38;;;17.90;74.40;;;;;;5098714;28;20028;-37
2021/09/24 12:40:13;;;;;;;0.68;0.60;;;17.90;74.50;;;;;;5102344;28;20055;-37
2021/09/24 12:42:52;;;;;;;0.77;0.63;;;17.90;74.50;;;;;;5079346;28;20031;-37
2021/09/24 12:45:25;;;;;;;0.98;0.60;;;17.90;74.40;;;;;;5104191;28;20035;-37
2021/09/24 12:47:52;;;;;;;0.52;0.30;;;17.90;74.50;;;;;;5102515;28;20055;-37
2021/09/24 12:50:18;;;;;;;0.85;0.50;;;17.90;74.50;;;;;;5102286;28;20024;-37
2021/09/24 12:52:44;;;;;;;0.85;0.60;;;17.80;74.40;;;;;;5119909;28;20071;-37
2021/09/24 12:55:11;;;;;;;0.52;0.47;;;17.80;74.40;;;;;;5087447;28;20038;-37